Time;durP1;ratioP1;P1;durP2;ratioP2;P2;SDS_P1;SDS_P2;PMS_P1;PMS_P2;Temp;Humidity;BMP_temperature;BMP_pressure;BME280_temperature;BME280_humidity;BME280_pressure;Samples;Min_cycle;Max_cycle;Signal;HPM_P1;HPM_P2
2023/06/30 00:00:27;;;;;;;3.80;2.80;;;19.00;99.90;;;;;;5073481;28;20198;-69
2023/06/30 00:02:52;;;;;;;2.90;2.60;;;19.00;99.90;;;;;;5073480;28;20186;-69
2023/06/30 00:05:18;;;;;;;5.80;1.87;;;19.00;99.90;;;;;;5073596;28;20558;-70
2023/06/30 00:07:44;;;;;;;2.97;2.30;;;19.00;99.90;;;;;;5073676;28;20171;-69
2023/06/30 00:10:10;;;;;;;2.93;1.70;;;19.00;99.90;;;;;;5073582;28;20622;-69
2023/06/30 00:12:36;;;;;;;2.80;2.70;;;19.00;99.90;;;;;;5073407;28;20417;-69
2023/06/30 00:15:02;;;;;;;3.27;2.50;;;19.10;99.90;;;;;;5073585;28;20779;-69
2023/06/30 00:17:27;;;;;;;4.33;3.27;;;19.10;99.90;;;;;;5073493;28;20176;-68
2023/06/30 00:19:53;;;;;;;2.37;2.17;;;19.20;99.90;;;;;;5073365;28;20970;-69
2023/06/30 00:22:22;;;;;;;4.57;2.37;;;19.10;99.90;;;;;;5073004;28;20262;-69
2023/06/30 00:24:54;;;;;;;3.70;3.40;;;19.10;99.90;;;;;;5072826;28;20295;-69
2023/06/30 00:27:21;;;;;;;3.13;2.93;;;19.10;99.90;;;;;;5073441;28;20760;-69
2023/06/30 00:29:46;;;;;;;5.07;4.63;;;19.20;99.90;;;;;;5073476;28;20539;-69
2023/06/30 00:32:12;;;;;;;3.60;3.30;;;19.20;99.90;;;;;;5073178;28;20433;-70
2023/06/30 00:34:37;;;;;;;2.83;2.50;;;19.10;99.90;;;;;;5073550;28;20219;-69
2023/06/30 00:37:03;;;;;;;2.20;2.00;;;19.20;99.90;;;;;;5073364;28;20172;-70
2023/06/30 00:39:29;;;;;;;3.90;3.60;;;19.30;99.90;;;;;;5073135;28;20200;-69
2023/06/30 00:41:54;;;;;;;2.63;2.43;;;19.30;99.90;;;;;;5073129;28;20208;-69
2023/06/30 00:44:20;;;;;;;2.90;2.10;;;19.30;99.90;;;;;;5073243;28;20196;-69
2023/06/30 00:46:46;;;;;;;3.60;3.27;;;19.30;99.90;;;;;;5073228;28;20165;-69
2023/06/30 00:49:11;;;;;;;3.40;3.17;;;19.20;99.90;;;;;;5073222;28;20320;-68
2023/06/30 00:51:37;;;;;;;3.40;3.10;;;19.20;99.90;;;;;;5072898;28;20626;-69
2023/06/30 00:54:03;;;;;;;1.87;1.77;;;19.10;99.90;;;;;;5073343;28;20645;-68
2023/06/30 00:56:29;;;;;;;6.13;1.77;;;19.10;99.90;;;;;;5073343;28;20166;-69
2023/06/30 00:58:57;;;;;;;4.00;2.90;;;19.00;99.90;;;;;;5073176;28;20802;-69
2023/06/30 01:01:26;;;;;;;4.03;3.70;;;18.90;99.90;;;;;;5072855;28;20228;-68
2023/06/30 01:04:00;;;;;;;4.00;2.70;;;19.00;99.90;;;;;;5072955;28;20419;-69
2023/06/30 01:06:37;;;;;;;1.37;1.30;;;19.00;99.90;;;;;;5073260;28;20417;-69
2023/06/30 01:09:11;;;;;;;2.30;1.57;;;18.90;99.90;;;;;;5073061;28;20460;-69
2023/06/30 01:11:37;;;;;;;1.97;1.83;;;18.90;99.90;;;;;;5075141;28;20425;-69
2023/06/30 01:14:06;;;;;;;4.57;3.33;;;18.90;99.90;;;;;;5076861;28;20408;-69
2023/06/30 01:16:33;;;;;;;4.87;2.73;;;18.90;99.90;;;;;;5076750;28;20476;-69
2023/06/30 01:19:01;;;;;;;3.07;2.50;;;19.00;99.90;;;;;;5076795;28;20502;-69
2023/06/30 01:21:29;;;;;;;2.87;2.67;;;19.00;99.90;;;;;;5076539;28;20421;-69
2023/06/30 01:24:02;;;;;;;2.77;2.07;;;19.00;99.90;;;;;;5076703;28;20452;-69
2023/06/30 01:26:30;;;;;;;2.17;1.97;;;18.80;99.90;;;;;;5076699;28;20405;-69
2023/06/30 01:28:56;;;;;;;2.40;2.20;;;18.70;99.90;;;;;;5076500;28;20428;-69
2023/06/30 01:31:22;;;;;;;2.50;2.30;;;18.70;99.90;;;;;;5076330;28;20900;-69
2023/06/30 01:33:48;;;;;;;4.47;4.07;;;18.80;99.90;;;;;;5076592;28;20415;-69
2023/06/30 01:36:14;;;;;;;3.07;2.87;;;18.70;99.90;;;;;;5076479;28;20638;-69
2023/06/30 01:38:39;;;;;;;6.23;3.43;;;18.50;99.90;;;;;;5076269;28;20404;-68
2023/06/30 01:41:08;;;;;;;2.77;2.50;;;18.60;99.90;;;;;;5076286;28;20526;-69
2023/06/30 01:43:36;;;;;;;1.87;1.70;;;18.60;99.90;;;;;;5076499;28;20165;-69
2023/06/30 01:46:03;;;;;;;2.40;2.20;;;18.50;99.90;;;;;;5076177;28;20451;-69
2023/06/30 01:48:29;;;;;;;2.07;1.87;;;18.20;99.90;;;;;;5076521;28;20411;-69
2023/06/30 01:50:56;;;;;;;4.20;3.80;;;18.40;99.90;;;;;;5075939;28;20433;-69
2023/06/30 01:53:21;;;;;;;3.23;2.83;;;18.40;99.90;;;;;;5076556;28;20204;-68
2023/06/30 01:55:47;;;;;;;4.07;3.70;;;18.40;99.90;;;;;;5076143;28;20896;-69
2023/06/30 01:58:14;;;;;;;2.43;2.30;;;18.30;99.90;;;;;;5076300;28;20177;-69
2023/06/30 02:00:39;;;;;;;3.40;3.10;;;18.20;99.90;;;;;;5075979;28;20794;-69
2023/06/30 02:03:05;;;;;;;3.47;3.17;;;18.20;99.90;;;;;;5075837;28;20400;-69
2023/06/30 02:05:31;;;;;;;5.40;2.90;;;18.10;99.90;;;;;;5075986;28;20198;-69
2023/06/30 02:07:56;;;;;;;1.90;1.80;;;18.20;99.90;;;;;;5075872;28;20178;-69
2023/06/30 02:10:22;;;;;;;2.90;2.00;;;18.30;99.90;;;;;;5075788;28;20198;-69
2023/06/30 02:12:47;;;;;;;2.77;2.63;;;18.20;99.90;;;;;;5075684;28;20181;-69
2023/06/30 02:15:13;;;;;;;2.00;1.90;;;18.20;99.90;;;;;;5075904;28;20523;-69
2023/06/30 02:17:40;;;;;;;3.13;2.13;;;18.20;99.90;;;;;;5075920;28;20177;-69
2023/06/30 02:20:06;;;;;;;2.17;2.00;;;18.20;99.90;;;;;;5075676;28;20189;-69
2023/06/30 02:22:33;;;;;;;2.80;2.60;;;18.20;99.90;;;;;;5075358;28;20412;-69
2023/06/30 02:24:59;;;;;;;3.97;2.23;;;18.20;99.90;;;;;;5075471;28;21001;-69
2023/06/30 02:27:26;;;;;;;2.63;2.43;;;18.20;99.90;;;;;;5075598;28;20407;-69
2023/06/30 02:29:51;;;;;;;3.17;1.80;;;18.20;99.90;;;;;;5075335;28;20423;-69
2023/06/30 02:32:17;;;;;;;2.70;1.67;;;18.20;99.90;;;;;;5075246;28;20896;-69
2023/06/30 02:34:43;;;;;;;2.57;2.47;;;18.30;99.90;;;;;;5075267;28;20173;-69
2023/06/30 02:37:08;;;;;;;3.27;2.27;;;18.30;99.90;;;;;;5075270;28;20412;-69
2023/06/30 02:39:34;;;;;;;3.73;1.90;;;18.30;99.90;;;;;;5075075;28;20221;-68
2023/06/30 02:42:00;;;;;;;2.47;2.27;;;18.30;99.90;;;;;;5075277;28;20535;-69
2023/06/30 02:44:30;;;;;;;6.40;3.40;;;18.30;99.90;;;;;;5075266;28;20185;-69
2023/06/30 02:46:55;;;;;;;2.93;2.73;;;18.40;99.90;;;;;;5075340;28;20185;-68
2023/06/30 02:49:22;;;;;;;1.93;1.83;;;18.30;99.90;;;;;;5074967;28;20424;-69
2023/06/30 02:51:48;;;;;;;3.80;3.20;;;18.20;99.90;;;;;;5074783;28;20193;-69
2023/06/30 02:54:13;;;;;;;4.30;3.90;;;18.20;99.90;;;;;;5075008;28;20404;-69
2023/06/30 02:56:39;;;;;;;5.60;2.97;;;18.30;99.90;;;;;;5075253;28;20181;-69
2023/06/30 02:59:04;;;;;;;1.93;1.70;;;18.40;99.90;;;;;;5074981;28;20199;-69
2023/06/30 03:01:30;;;;;;;4.77;4.27;;;18.40;99.90;;;;;;5074623;28;20174;-69
2023/06/30 03:03:55;;;;;;;3.17;2.50;;;18.30;99.90;;;;;;5074689;28;20294;-68
2023/06/30 03:06:21;;;;;;;2.87;2.50;;;18.30;99.90;;;;;;5074695;28;20189;-69
2023/06/30 03:08:47;;;;;;;2.93;2.53;;;18.40;99.90;;;;;;5074629;28;20718;-68
2023/06/30 03:11:13;;;;;;;1.83;1.50;;;18.30;99.90;;;;;;5074466;28;20512;-69
2023/06/30 03:13:38;;;;;;;3.30;3.10;;;18.20;99.90;;;;;;5074685;28;20184;-68
2023/06/30 03:16:05;;;;;;;4.97;3.53;;;18.10;99.90;;;;;;5074732;28;20405;-68
2023/06/30 03:18:31;;;;;;;4.23;3.00;;;17.90;99.90;;;;;;5074564;28;20177;-68
2023/06/30 03:20:56;;;;;;;2.43;2.33;;;18.00;99.90;;;;;;5072910;28;20726;-69
2023/06/30 03:23:22;;;;;;;2.67;2.47;;;18.10;99.90;;;;;;5074620;28;20180;-69
2023/06/30 03:25:48;;;;;;;4.77;2.57;;;18.10;99.90;;;;;;5073827;28;20292;-69
2023/06/30 03:28:13;;;;;;;5.20;2.83;;;18.10;99.90;;;;;;5073921;28;20629;-69
2023/06/30 03:30:39;;;;;;;3.30;2.43;;;18.10;99.90;;;;;;5074134;28;20272;-70
2023/06/30 03:33:05;;;;;;;2.07;1.93;;;18.10;99.90;;;;;;5072123;28;20313;-69
2023/06/30 03:35:30;;;;;;;2.50;2.40;;;18.10;99.90;;;;;;5071732;28;20180;-69
2023/06/30 03:37:56;;;;;;;7.60;4.63;;;18.20;99.90;;;;;;5072353;28;20855;-69
2023/06/30 03:40:22;;;;;;;3.27;2.60;;;18.30;99.90;;;;;;5073039;28;20587;-69
2023/06/30 03:42:47;;;;;;;4.13;3.80;;;18.40;99.90;;;;;;5073110;28;20176;-69
2023/06/30 03:45:13;;;;;;;5.97;4.00;;;18.40;99.90;;;;;;5073246;28;20207;-69
2023/06/30 03:47:38;;;;;;;3.67;3.47;;;18.40;99.90;;;;;;5073513;28;20165;-70
2023/06/30 03:50:05;;;;;;;3.10;2.83;;;18.40;99.90;;;;;;5073697;28;20197;-69
2023/06/30 03:52:31;;;;;;;4.73;3.97;;;18.40;99.90;;;;;;5074027;28;20633;-68
2023/06/30 03:54:57;;;;;;;5.20;3.03;;;18.30;99.90;;;;;;5074134;28;20541;-70
2023/06/30 03:57:22;;;;;;;3.50;2.80;;;18.30;99.90;;;;;;5074147;28;20192;-69
2023/06/30 03:59:48;;;;;;;3.30;1.97;;;18.30;99.90;;;;;;5073884;28;20190;-70
2023/06/30 04:02:13;;;;;;;2.83;2.63;;;18.50;99.90;;;;;;5073720;28;20772;-70
2023/06/30 04:04:39;;;;;;;2.43;2.23;;;18.70;99.90;;;;;;5073867;28;20558;-68
2023/06/30 04:07:06;;;;;;;2.50;2.30;;;19.00;99.90;;;;;;5073222;28;20165;-68
2023/06/30 04:09:32;;;;;;;4.60;4.20;;;19.20;99.90;;;;;;5074364;28;20431;-68
2023/06/30 04:11:57;;;;;;;3.00;2.83;;;19.40;99.90;;;;;;5073284;28;20470;-68
2023/06/30 04:14:23;;;;;;;1.27;1.17;;;19.70;99.90;;;;;;5073040;28;20403;-69
2023/06/30 04:16:48;;;;;;;2.40;1.67;;;19.90;99.90;;;;;;5073543;28;20254;-70
2023/06/30 04:19:14;;;;;;;2.90;2.50;;;20.00;99.90;;;;;;5072939;28;20224;-68
2023/06/30 04:21:43;;;;;;;4.83;2.77;;;19.90;99.90;;;;;;5073491;28;20176;-68
2023/06/30 04:27:30;;;;;;;4.40;2.80;;;19.80;99.90;;;;;;5072339;28;20390;-68
2023/06/30 04:33:18;;;;;;;2.83;2.63;;;19.30;99.90;;;;;;5072367;28;20240;-69
2023/06/30 04:35:43;;;;;;;3.83;3.50;;;19.10;99.90;;;;;;5072957;28;20480;-69
2023/06/30 04:38:09;;;;;;;1.27;1.17;;;19.00;99.90;;;;;;5073461;28;20524;-69
2023/06/30 04:40:35;;;;;;;2.07;1.93;;;18.80;99.90;;;;;;5072305;28;20190;-69
2023/06/30 04:43:02;;;;;;;3.00;2.77;;;18.60;99.90;;;;;;5073219;28;20463;-69
2023/06/30 04:45:27;;;;;;;3.00;2.77;;;18.50;99.90;;;;;;5073652;28;20209;-68
2023/06/30 04:47:53;;;;;;;2.70;1.97;;;18.40;99.90;;;;;;5077831;28;20775;-68
2023/06/30 04:50:19;;;;;;;3.23;2.43;;;18.30;99.90;;;;;;5077134;28;20208;-69
2023/06/30 04:52:44;;;;;;;2.07;1.97;;;18.30;99.90;;;;;;5077225;28;20166;-69
2023/06/30 04:55:10;;;;;;;5.87;2.57;;;18.30;99.90;;;;;;5076351;28;20219;-69
2023/06/30 04:57:36;;;;;;;5.13;2.80;;;18.20;99.90;;;;;;5077813;28;20170;-69
2023/06/30 05:00:02;;;;;;;1.90;1.80;;;18.10;99.90;;;;;;5077281;28;20197;-69
2023/06/30 05:02:27;;;;;;;1.53;1.20;;;18.10;99.90;;;;;;5077205;28;20173;-69
2023/06/30 05:04:53;;;;;;;2.30;2.10;;;18.00;99.90;;;;;;5077143;28;20965;-69
2023/06/30 05:07:19;;;;;;;3.97;3.50;;;17.90;99.90;;;;;;5077013;28;20241;-68
2023/06/30 05:09:46;;;;;;;1.83;1.73;;;17.80;99.90;;;;;;5076144;28;20185;-68
2023/06/30 05:12:12;;;;;;;1.70;1.50;;;17.80;99.90;;;;;;5076604;28;20421;-68
2023/06/30 05:14:38;;;;;;;1.63;1.53;;;17.70;99.90;;;;;;5077038;28;20400;-69
2023/06/30 05:17:04;;;;;;;3.00;2.70;;;17.60;99.90;;;;;;5076765;28;20412;-69
2023/06/30 05:19:29;;;;;;;2.60;1.80;;;17.50;99.90;;;;;;5076688;28;20225;-69
2023/06/30 05:21:55;;;;;;;2.70;2.10;;;17.50;99.90;;;;;;5076566;28;20545;-68
2023/06/30 05:24:21;;;;;;;3.07;2.40;;;17.50;99.90;;;;;;5076712;28;20203;-68
2023/06/30 05:26:58;;;;;;;;;;;;;;;;;;;;;
2023/06/30 05:29:28;;;;;;;6.70;3.27;;;17.50;99.90;;;;;;5075759;28;20185;-69
2023/06/30 05:31:53;;;;;;;3.97;2.83;;;17.50;99.90;;;;;;5074903;28;20412;-68
2023/06/30 05:34:19;;;;;;;3.53;3.17;;;17.50;99.90;;;;;;5076628;28;20480;-68
2023/06/30 05:36:45;;;;;;;2.33;1.77;;;17.50;99.90;;;;;;5076610;28;20173;-69
2023/06/30 05:39:11;;;;;;;3.73;3.13;;;17.60;99.90;;;;;;5076281;28;20225;-68
2023/06/30 05:41:37;;;;;;;2.93;2.73;;;17.70;99.90;;;;;;5075974;28;20249;-69
2023/06/30 05:44:02;;;;;;;3.80;3.47;;;17.70;99.90;;;;;;5076309;28;20507;-68
2023/06/30 05:46:28;;;;;;;5.50;1.80;;;17.80;99.90;;;;;;5076011;28;20176;-69
2023/06/30 05:48:54;;;;;;;6.27;3.23;;;17.70;99.90;;;;;;5076290;28;20186;-68
2023/06/30 05:51:19;;;;;;;4.50;3.13;;;17.70;99.90;;;;;;5075938;28;20587;-68
2023/06/30 05:53:46;;;;;;;3.60;2.60;;;17.70;99.90;;;;;;5076292;28;20218;-69
2023/06/30 05:56:11;;;;;;;2.43;1.73;;;17.70;99.90;;;;;;5076089;28;20185;-68
2023/06/30 05:58:39;;;;;;;4.33;3.47;;;18.00;99.90;;;;;;5075690;28;20412;-68
2023/06/30 06:01:05;;;;;;;6.87;3.00;;;17.70;99.90;;;;;;5075890;28;20173;-69
2023/06/30 06:03:30;;;;;;;3.47;3.17;;;17.70;99.90;;;;;;5075946;28;20473;-68
2023/06/30 06:05:57;;;;;;;4.83;2.60;;;17.70;99.90;;;;;;5075677;28;20232;-68
2023/06/30 06:08:23;;;;;;;3.13;2.80;;;17.70;99.90;;;;;;5076448;28;20187;-69
2023/06/30 06:10:48;;;;;;;1.77;1.50;;;17.80;99.90;;;;;;5076088;28;20404;-68
2023/06/30 06:13:34;;;;;;;4.50;3.40;;;17.80;99.90;;;;;;5075851;28;20399;-68
2023/06/30 06:16:00;;;;;;;2.47;2.27;;;17.90;99.90;;;;;;5076195;28;20178;-69
2023/06/30 06:18:26;;;;;;;3.13;2.60;;;18.00;99.90;;;;;;5076014;28;20503;-69
2023/06/30 06:20:51;;;;;;;5.20;4.33;;;17.90;99.90;;;;;;5076278;28;20496;-69
2023/06/30 06:23:17;;;;;;;2.33;2.23;;;17.90;99.90;;;;;;5076275;28;20186;-70
2023/06/30 06:25:43;;;;;;;2.10;1.93;;;18.00;99.90;;;;;;5074274;28;20208;-72
2023/06/30 06:28:09;;;;;;;2.60;2.40;;;18.10;99.90;;;;;;5076318;28;20176;-70
2023/06/30 06:30:35;;;;;;;1.70;1.60;;;18.30;99.90;;;;;;5075214;28;20282;-69
2023/06/30 06:33:02;;;;;;;4.60;2.10;;;18.50;99.90;;;;;;5075733;28;20407;-69
2023/06/30 06:35:27;;;;;;;6.23;2.90;;;18.60;99.90;;;;;;5075882;28;20415;-73
2023/06/30 06:37:53;;;;;;;2.00;1.80;;;18.70;99.90;;;;;;5076201;28;20755;-72
2023/06/30 06:40:18;;;;;;;4.30;4.10;;;18.80;99.90;;;;;;5075203;28;20282;-70
2023/06/30 06:42:45;;;;;;;4.27;3.77;;;18.90;99.90;;;;;;5075325;28;20193;-70
2023/06/30 06:45:12;;;;;;;3.30;2.20;;;19.00;99.90;;;;;;5075119;28;20201;-69
2023/06/30 06:48:15;;;;;;;4.97;3.23;;;19.00;99.90;;;;;;5075589;28;20495;-69
2023/06/30 06:50:40;;;;;;;4.80;4.27;;;19.10;99.90;;;;;;5074606;28;20449;-69
2023/06/30 06:53:06;;;;;;;4.00;2.30;;;19.10;99.90;;;;;;5074875;28;20403;-68
2023/06/30 06:55:35;;;;;;;4.60;3.27;;;19.00;99.90;;;;;;5074234;28;20167;-70
2023/06/30 06:58:01;;;;;;;4.80;3.03;;;19.00;99.90;;;;;;5075450;28;20497;-68
2023/06/30 07:00:27;;;;;;;3.03;1.80;;;19.00;99.90;;;;;;5074660;28;20475;-69
2023/06/30 07:02:53;;;;;;;4.33;3.10;;;18.90;99.90;;;;;;5073744;28;20261;-69
2023/06/30 07:05:19;;;;;;;3.47;3.07;;;19.00;99.90;;;;;;5074683;28;20195;-69
2023/06/30 07:07:44;;;;;;;2.80;2.60;;;18.90;99.90;;;;;;5074567;28;20431;-69
2023/06/30 07:10:12;;;;;;;4.33;4.03;;;19.00;99.90;;;;;;5074039;28;20197;-68
2023/06/30 07:12:37;;;;;;;2.93;2.30;;;19.00;99.90;;;;;;5074514;28;20177;-69
2023/06/30 07:15:04;;;;;;;1.93;1.83;;;19.00;99.90;;;;;;5074671;28;20411;-69
2023/06/30 07:17:33;;;;;;;2.53;1.83;;;19.00;99.90;;;;;;5074644;28;20182;-69
2023/06/30 07:19:59;;;;;;;3.23;2.40;;;18.90;99.90;;;;;;5074478;28;20439;-70
2023/06/30 07:22:25;;;;;;;3.93;2.60;;;18.90;99.90;;;;;;5074361;28;20766;-69
2023/06/30 07:24:50;;;;;;;5.03;2.63;;;18.90;99.90;;;;;;5074379;28;20451;-68
2023/06/30 07:27:16;;;;;;;2.47;1.33;;;19.00;99.90;;;;;;5074297;28;20178;-69
2023/06/30 07:29:41;;;;;;;2.67;2.20;;;19.00;99.90;;;;;;5074530;28;20278;-71
2023/06/30 07:32:07;;;;;;;3.17;1.70;;;19.10;99.90;;;;;;5074267;28;20623;-70
2023/06/30 07:34:33;;;;;;;5.30;3.63;;;19.30;99.90;;;;;;5073327;28;20184;-71
2023/06/30 07:37:00;;;;;;;2.10;2.00;;;19.50;99.90;;;;;;5074205;28;20475;-72
2023/06/30 07:39:26;;;;;;;2.87;2.40;;;19.70;99.90;;;;;;5074625;28;20441;-70
2023/06/30 07:41:51;;;;;;;4.03;2.50;;;19.90;99.90;;;;;;5073006;28;20506;-71
2023/06/30 07:44:19;;;;;;;2.83;2.47;;;20.10;99.90;;;;;;5074615;28;20438;-69
2023/06/30 07:46:45;;;;;;;5.03;3.33;;;20.10;99.90;;;;;;5074750;28;20165;-69
2023/06/30 07:49:11;;;;;;;4.93;2.63;;;20.00;99.90;;;;;;5072842;28;20476;-69
2023/06/30 07:51:36;;;;;;;4.83;2.70;;;19.70;99.90;;;;;;5071672;28;20272;-68
2023/06/30 07:54:03;;;;;;;2.40;2.30;;;19.30;99.90;;;;;;5074102;28;20200;-70
2023/06/30 07:56:29;;;;;;;2.30;2.10;;;19.20;99.90;;;;;;5072704;28;20472;-69
2023/06/30 07:58:54;;;;;;;4.07;3.33;;;19.20;99.90;;;;;;5073673;28;20707;-69
2023/06/30 08:01:20;;;;;;;3.33;3.03;;;19.30;99.90;;;;;;5073714;28;20173;-69
2023/06/30 08:03:46;;;;;;;2.77;2.57;;;19.30;99.90;;;;;;5072600;28;20219;-69
2023/06/30 08:06:12;;;;;;;3.23;2.47;;;19.40;99.90;;;;;;5071800;28;20226;-69
2023/06/30 08:08:37;;;;;;;4.10;3.63;;;19.40;99.90;;;;;;5073177;28;20509;-69
2023/06/30 08:11:03;;;;;;;7.17;3.00;;;19.50;99.90;;;;;;5072424;28;20178;-69
2023/06/30 08:13:28;;;;;;;4.07;3.77;;;19.40;99.90;;;;;;5073510;28;20220;-69
2023/06/30 08:15:54;;;;;;;2.60;2.40;;;19.40;99.90;;;;;;5073000;28;20185;-69
2023/06/30 08:18:20;;;;;;;4.10;3.00;;;19.50;99.90;;;;;;5073564;28;20177;-69
2023/06/30 08:20:46;;;;;;;4.07;3.00;;;19.50;99.90;;;;;;5073549;28;20660;-69
2023/06/30 08:23:14;;;;;;;4.63;4.30;;;19.50;99.90;;;;;;5072550;28;20182;-68
2023/06/30 08:25:40;;;;;;;5.10;3.13;;;19.50;99.90;;;;;;5073559;28;20492;-69
2023/06/30 08:28:06;;;;;;;1.37;1.20;;;19.40;99.90;;;;;;5073707;28;20404;-69
2023/06/30 08:30:31;;;;;;;3.27;2.57;;;19.40;99.90;;;;;;5072317;28;20435;-70
2023/06/30 08:32:57;;;;;;;2.53;2.30;;;19.30;99.90;;;;;;5073608;28;20180;-70
2023/06/30 08:35:23;;;;;;;5.27;2.23;;;19.20;99.90;;;;;;5073644;28;20166;-70
2023/06/30 08:37:48;;;;;;;3.20;2.90;;;19.10;99.90;;;;;;5073786;28;20179;-70
2023/06/30 08:40:25;;;;;;;4.63;3.33;;;19.20;99.90;;;;;;5073703;28;20227;-70
2023/06/30 08:42:52;;;;;;;4.37;2.50;;;19.20;99.90;;;;;;5073151;28;20267;-70
2023/06/30 08:45:18;;;;;;;5.60;3.67;;;19.20;99.90;;;;;;5073385;28;20960;-70
2023/06/30 08:47:44;;;;;;;3.23;2.93;;;19.10;99.90;;;;;;5073437;28;20484;-71
2023/06/30 08:50:10;;;;;;;3.63;3.33;;;19.00;99.90;;;;;;5073162;28;20864;-71
2023/06/30 08:52:36;;;;;;;3.90;3.50;;;18.90;99.90;;;;;;5072209;28;20748;-69
2023/06/30 08:55:04;;;;;;;4.20;3.70;;;18.80;99.90;;;;;;5073763;28;20494;-70
2023/06/30 08:57:31;;;;;;;9.27;5.50;;;18.80;99.90;;;;;;5072749;28;20617;-69
2023/06/30 08:59:56;;;;;;;6.40;4.77;;;18.70;99.90;;;;;;5071502;28;20964;-68
2023/06/30 09:02:23;;;;;;;4.03;3.67;;;18.80;99.90;;;;;;5072918;28;20416;-70
2023/06/30 09:04:49;;;;;;;5.70;4.43;;;18.70;99.90;;;;;;5073425;28;20194;-69
2023/06/30 09:07:40;;;;;;;4.13;3.23;;;18.80;99.90;;;;;;5072138;28;20923;-69
2023/06/30 09:10:09;;;;;;;4.83;4.53;;;18.90;99.90;;;;;;5073315;28;20550;-69
2023/06/30 09:12:35;;;;;;;7.60;3.73;;;19.00;99.90;;;;;;5073202;28;20409;-70
2023/06/30 09:15:01;;;;;;;7.10;3.43;;;19.00;99.90;;;;;;5072011;28;20422;-70
2023/06/30 09:17:28;;;;;;;13.57;5.40;;;19.00;99.90;;;;;;5073345;28;20416;-69
2023/06/30 09:19:53;;;;;;;5.40;4.30;;;19.00;99.90;;;;;;5073080;28;20857;-69
2023/06/30 09:22:23;;;;;;;7.57;3.87;;;19.10;99.90;;;;;;5073044;28;20487;-69
2023/06/30 09:24:49;;;;;;;11.47;6.20;;;19.20;99.90;;;;;;5073594;28;20254;-69
2023/06/30 09:27:16;;;;;;;3.20;3.00;;;19.50;99.90;;;;;;5071423;28;20446;-70
2023/06/30 09:29:42;;;;;;;7.80;4.50;;;19.90;99.90;;;;;;5073004;28;20190;-70
2023/06/30 09:32:08;;;;;;;3.40;2.87;;;20.20;99.90;;;;;;5074241;28;20430;-70
2023/06/30 09:34:34;;;;;;;4.90;3.83;;;20.40;99.90;;;;;;5077194;28;20177;-69
2023/06/30 09:36:59;;;;;;;10.63;4.00;;;20.40;99.90;;;;;;5076522;28;20981;-71
2023/06/30 09:39:25;;;;;;;7.50;5.03;;;20.20;99.90;;;;;;5076667;28;20618;-71
2023/06/30 09:41:52;;;;;;;4.67;4.23;;;20.00;99.90;;;;;;5076523;28;20612;-70
2023/06/30 09:44:22;;;;;;;4.17;3.87;;;19.80;99.90;;;;;;5076562;28;20438;-69
2023/06/30 09:46:49;;;;;;;3.77;3.07;;;19.70;99.90;;;;;;5076892;28;20434;-70
2023/06/30 09:49:25;;;;;;;3.60;3.30;;;19.70;99.90;;;;;;5076366;28;20524;-70
2023/06/30 09:51:52;;;;;;;4.60;4.17;;;19.70;99.90;;;;;;5076538;28;20892;-70
2023/06/30 09:54:20;;;;;;;3.03;2.70;;;19.70;99.90;;;;;;5076445;28;20426;-70
2023/06/30 09:56:46;;;;;;;4.33;3.47;;;19.70;99.90;;;;;;5076503;28;20407;-70
2023/06/30 09:59:13;;;;;;;8.33;6.20;;;19.70;99.90;;;;;;5076548;28;20425;-71
2023/06/30 10:01:40;;;;;;;3.97;3.33;;;19.70;99.90;;;;;;5075971;28;20173;-70
2023/06/30 10:04:06;;;;;;;4.73;4.10;;;19.70;99.90;;;;;;5076233;28;20770;-71
2023/06/30 10:06:33;;;;;;;5.30;3.87;;;19.80;99.90;;;;;;5075982;28;20403;-71
2023/06/30 10:09:04;;;;;;;5.47;4.20;;;19.90;99.90;;;;;;5076165;28;20245;-70
2023/06/30 10:11:31;;;;;;;8.70;5.20;;;20.00;99.90;;;;;;5074195;28;20464;-70
2023/06/30 10:13:59;;;;;;;3.70;3.17;;;20.10;99.90;;;;;;5073098;28;20418;-71
2023/06/30 10:16:25;;;;;;;3.53;2.70;;;20.20;99.90;;;;;;5074576;28;20408;-70
2023/06/30 10:18:53;;;;;;;5.70;3.43;;;20.30;99.90;;;;;;5075796;28;20418;-71
2023/06/30 10:21:19;;;;;;;4.30;3.50;;;20.40;99.90;;;;;;5075735;28;20407;-71
2023/06/30 10:23:47;;;;;;;6.13;4.47;;;19.90;99.90;;;;;;5075787;28;20425;-70
2023/06/30 10:26:17;;;;;;;8.13;4.20;;;19.70;99.90;;;;;;5075675;28;20199;-70
2023/06/30 10:28:43;;;;;;;4.30;3.90;;;19.40;99.90;;;;;;5075816;28;20419;-71
2023/06/30 10:31:09;;;;;;;4.43;4.03;;;19.60;99.90;;;;;;5075370;28;20489;-71
2023/06/30 10:33:36;;;;;;;6.60;4.97;;;19.50;99.90;;;;;;5075188;28;20234;-70
2023/06/30 10:36:03;;;;;;;4.83;3.77;;;19.40;99.90;;;;;;5075363;28;20435;-70
2023/06/30 10:38:29;;;;;;;3.53;3.07;;;19.60;99.90;;;;;;5075307;28;20409;-70
2023/06/30 10:41:19;;;;;;;4.60;2.80;;;19.40;99.90;;;;;;5075166;28;20417;-71
2023/06/30 10:44:03;;;;;;;7.57;5.20;;;19.60;99.90;;;;;;5074020;28;20254;-70
2023/06/30 10:46:57;;;;;;;5.70;4.10;;;19.90;99.90;;;;;;5075163;28;20447;-70
2023/06/30 10:49:30;;;;;;;7.13;4.40;;;20.20;99.90;;;;;;5074742;28;20484;-70
2023/06/30 10:52:01;;;;;;;5.23;3.40;;;20.20;99.90;;;;;;5074971;28;20391;-71
2023/06/30 10:54:36;;;;;;;3.73;2.87;;;20.40;99.90;;;;;;5075070;28;20759;-71
2023/06/30 10:57:19;;;;;;;4.80;3.57;;;20.40;99.90;;;;;;5075140;28;20492;-71
2023/06/30 10:59:47;;;;;;;5.37;4.07;;;20.30;99.90;;;;;;5074988;28;20424;-71
2023/06/30 11:02:18;;;;;;;6.20;3.70;;;20.50;99.90;;;;;;5074650;28;20401;-71
2023/06/30 11:04:47;;;;;;;6.10;4.80;;;20.50;99.90;;;;;;5074670;28;20960;-71
2023/06/30 11:07:24;;;;;;;4.50;2.80;;;20.40;99.90;;;;;;5074791;28;20490;-71
2023/06/30 11:09:49;;;;;;;4.73;3.07;;;20.30;99.90;;;;;;5074662;28;20911;-71
2023/06/30 11:12:25;;;;;;;9.43;4.40;;;20.20;99.90;;;;;;5074414;28;20408;-71
2023/06/30 11:14:57;;;;;;;3.87;2.70;;;20.20;99.90;;;;;;5074868;28;20165;-71
2023/06/30 11:17:51;;;;;;;3.43;3.13;;;20.20;99.90;;;;;;5074703;28;20449;-71
2023/06/30 11:20:18;;;;;;;4.90;2.80;;;20.10;99.90;;;;;;5074293;28;20486;-70
2023/06/30 11:23:01;;;;;;;3.90;2.67;;;20.10;99.90;;;;;;5074304;28;20404;-70
2023/06/30 11:25:31;;;;;;;7.93;4.00;;;20.10;99.90;;;;;;5074262;28;20801;-71
2023/06/30 11:27:59;;;;;;;5.23;4.07;;;20.10;99.90;;;;;;5074550;28;20537;-71
2023/06/30 11:30:25;;;;;;;2.83;2.37;;;20.20;99.90;;;;;;5074279;28;20943;-71
2023/06/30 11:32:58;;;;;;;1.77;1.67;;;20.20;99.90;;;;;;5072844;28;20397;-70
2023/06/30 11:35:25;;;;;;;2.60;2.20;;;20.10;99.90;;;;;;5074366;28;20491;-71
2023/06/30 11:37:52;;;;;;;4.40;4.17;;;20.10;99.90;;;;;;5074780;28;20435;-71
2023/06/30 11:40:19;;;;;;;3.90;2.93;;;20.00;99.90;;;;;;5074099;28;20510;-70
2023/06/30 11:42:45;;;;;;;2.80;2.60;;;19.90;99.90;;;;;;5074004;28;20482;-69
2023/06/30 11:45:16;;;;;;;2.57;2.37;;;19.70;99.90;;;;;;5074425;28;20556;-69
2023/06/30 11:47:45;;;;;;;9.80;3.23;;;19.60;99.90;;;;;;5073187;28;20428;-69
2023/06/30 11:50:11;;;;;;;4.57;3.40;;;19.40;99.90;;;;;;5071841;28;20445;-70
2023/06/30 11:52:38;;;;;;;2.73;2.40;;;19.40;99.90;;;;;;5072928;28;20408;-70
2023/06/30 11:55:05;;;;;;;4.97;3.10;;;19.40;99.90;;;;;;5073020;28;20448;-70
2023/06/30 11:57:36;;;;;;;5.30;4.87;;;19.40;99.90;;;;;;5073210;28;20404;-69
2023/06/30 12:00:19;;;;;;;2.67;1.77;;;19.50;99.90;;;;;;5073138;28;20431;-70
2023/06/30 12:02:47;;;;;;;4.27;3.80;;;19.50;99.90;;;;;;5073422;28;20821;-70
2023/06/30 12:05:16;;;;;;;5.97;4.13;;;19.60;99.90;;;;;;5073688;28;20442;-69
2023/06/30 12:07:42;;;;;;;2.40;1.90;;;19.70;99.90;;;;;;5073661;28;20404;-69
2023/06/30 12:10:09;;;;;;;8.30;3.83;;;19.80;99.90;;;;;;5073696;28;20502;-69
2023/06/30 12:12:35;;;;;;;3.30;3.03;;;19.80;99.90;;;;;;5073558;28;20486;-70
2023/06/30 12:15:05;;;;;;;4.70;3.60;;;19.80;99.90;;;;;;5073787;28;20405;-69
2023/06/30 12:17:42;;;;;;;5.33;3.27;;;19.90;99.90;;;;;;5073666;28;20416;-70
2023/06/30 12:20:08;;;;;;;5.13;2.90;;;19.90;99.90;;;;;;5073475;28;20795;-70
2023/06/30 12:22:44;;;;;;;4.80;2.20;;;19.90;99.90;;;;;;5073429;28;20407;-70
2023/06/30 12:25:11;;;;;;;8.70;3.53;;;19.80;99.90;;;;;;5073548;28;20486;-69
2023/06/30 12:27:43;;;;;;;3.83;2.33;;;19.80;99.90;;;;;;5073594;28;20400;-69
2023/06/30 12:30:18;;;;;;;2.70;1.97;;;19.80;99.90;;;;;;5073378;28;20518;-69
2023/06/30 12:32:44;;;;;;;4.97;2.97;;;19.80;99.90;;;;;;5073214;28;20895;-69
2023/06/30 12:35:11;;;;;;;11.63;3.70;;;19.90;99.90;;;;;;5073360;28;20491;-69
2023/06/30 12:37:38;;;;;;;4.03;3.20;;;20.00;99.90;;;;;;5073338;28;20409;-69
2023/06/30 12:40:06;;;;;;;3.97;3.03;;;20.10;99.90;;;;;;5073357;28;20422;-70
2023/06/30 12:42:32;;;;;;;3.37;1.57;;;20.20;99.90;;;;;;5073088;28;20427;-70
2023/06/30 12:44:58;;;;;;;3.47;3.27;;;20.20;99.90;;;;;;5073318;28;20459;-70
2023/06/30 12:47:24;;;;;;;2.93;2.37;;;20.40;99.90;;;;;;5073237;28;20400;-70
2023/06/30 12:49:50;;;;;;;5.07;2.83;;;20.60;99.90;;;;;;5073008;28;20782;-70
2023/06/30 12:52:16;;;;;;;3.03;2.40;;;20.80;99.90;;;;;;5073159;28;20163;-70
2023/06/30 12:54:42;;;;;;;2.87;2.67;;;21.00;99.90;;;;;;5073572;28;20468;-70